Milwaukee, WI

2:15 PM CDT on October 01, 2014 (GMT -0500)
Jans Embroidery | Change Station
CLOSE
Current Station
Personal Weather Station
Location: West Allis, WI
Elevation: 738 ft
Nearby Weather Stations

Elev 738 ft 43.00 °N, 88.00 °W | Updated 3 seconds ago

Partly Cloudy
Partly Cloudy
61.4 °F
Feels Like 61.4 °F
N
7.2
Wind Variable Wind from SSE
Gusts 13.9 mph

Today
High -- | Low -- °F
--% Chance of Precip.
Yesterday
High -- | Low -- °F
Precip. -- in
6:49 AM 6:33 PM
Waxing Crescent, 50% visible
Pressure 29.97 in
Visibility 10.0 miles
Clouds Few 2400 ft
Mostly Cloudy 25000 ft
Dew Point 44 °F
Humidity 52%
Rainfall 0.00 in
Snow Depth Not available.
UV 3 out of 12
Pollen 2.40 out of 12
Ozone Good
PM2.5 Good
Flu Activity Not available.
METAR KMKE 011852Z 13017KT 10SM FEW024 BKN250 16/11 A2997 RMK AO2 SLP148 T01610106

More Conditions Fewer Conditions

Pressure 29.97 in
Visibility 10.0 miles
Clouds Few 2400 ft
Mostly Cloudy 25000 ft
Dew Point 44 °F
Humidity 52%
Rainfall 0.00 in
Snow Depth Not available.
UV 3 out of 12
Pollen 2.40 out of 12
Ozone Good
PM2.5 Good
Flu Activity Not available.
METAR KMKE 011852Z 13017KT 10SM FEW024 BKN250 16/11 A2997 RMK AO2 SLP148 T01610106

More Conditions Fewer Conditions

10-Day Weather Forecast

Almanac

Astronomy

Oct. 01, 2014 Rise Set
Actual Time 6:49 AM CDT 6:33 PM CDT
Civil Twilight 6:20 AM CDT 7:01 PM CDT
Nautical Twilight 5:48 AM CDT 7:34 PM CDT
Astronomical Twilight 5:14 AM CDT 8:07 PM CDT
Moon 1:56 PM CDT 11:58 PM CDT
Length of Visible Light 12h 40m
Length of Day
11h 43m
Tomorrow will be 2m 54s shorter.
Waxing Crescent, 50% of the Moon is Illuminated
Today
Waxing Crescent
Oct 1
First Quarter
Oct 8
Full
Oct 15
Last Quarter
Oct 23
New

Today's Extremes

State Highs State Lows

Community

WunderPhotos

Upload Photos

1,758,010 photos uploaded!

WunderBlogs® & News

Nearby

Air Quality

  Air Quality AQ Index Pollutant
Yesterday Good
OZONE
Yesterday Good
PM10
Current Good
PM2.5
Current Good
OZONE
Wednesday Good
OZONE
Wednesday Good
PM2.5
Thursday Good
OZONE
Thursday Good
PM2.5
Friday Good
OZONE
Friday Good
PM2.5
Saturday Good
OZONE
Saturday Good
PM2.5
Sunday Good
OZONE
Sunday Good
PM2.5

Snow Depth

Station Depth Elevation
No new snow has been reported.

Earthquake Activity

City Distance Mag. Time & Date
No recent earthquake activity has been reported nearby.
Minimum magnitude displayed is 2.5.

Coastal Water Temperatures

Place Temperature
No Stations Reporting

Nearby Weather Stations